createdAt,value
2019-04-10T00:01:55.133Z,7.40
2019-04-10T00:04:25.694Z,7.40
2019-04-10T00:07:10.505Z,7.60
2019-04-10T00:09:48.105Z,7.60
2019-04-10T00:12:18.689Z,7.50
2019-04-10T00:14:49.024Z,7.40
2019-04-10T00:17:19.295Z,7.50
2019-04-10T00:19:49.572Z,7.40
2019-04-10T00:22:20.141Z,7.50
2019-04-10T00:24:50.484Z,7.30
2019-04-10T00:27:21.113Z,7.20
2019-04-10T00:29:52.334Z,7.40
2019-04-10T00:32:22.078Z,7.20
2019-04-10T00:34:52.102Z,7.30
2019-04-10T00:37:27.159Z,7.20
2019-04-10T00:39:55.034Z,7.20
2019-04-10T00:42:26.098Z,7.10
2019-04-10T00:44:56.944Z,6.90
2019-04-10T00:47:27.178Z,6.80
2019-04-10T00:49:57.904Z,6.70
2019-04-10T00:52:28.257Z,6.90
2019-04-10T00:54:59.431Z,7.00
2019-04-10T00:57:29.606Z,6.90
2019-04-10T00:59:59.627Z,6.80
2019-04-10T01:02:30.002Z,6.70
2019-04-10T01:05:00.567Z,6.70
2019-04-10T01:07:36.610Z,6.40
2019-04-10T01:10:04.412Z,6.40
2019-04-10T01:12:35.050Z,6.30
2019-04-10T01:15:07.262Z,6.40
2019-04-10T01:17:38.195Z,6.20
2019-04-10T01:20:09.146Z,6.50
2019-04-10T01:22:39.562Z,6.70
2019-04-10T01:25:10.322Z,6.70
2019-04-10T01:27:41.161Z,6.80
2019-04-10T01:30:11.695Z,6.60
2019-04-10T01:32:41.966Z,6.50
2019-04-10T01:35:13.984Z,6.40
2019-04-10T01:37:50.258Z,6.60
2019-04-10T01:40:15.624Z,6.60
2019-04-10T01:43:01.711Z,6.40
2019-04-10T01:45:17.777Z,6.10
2019-04-10T01:47:48.035Z,6.10
2019-04-10T01:50:18.218Z,6.00
2019-04-10T01:52:49.152Z,5.90
2019-04-10T01:55:25.354Z,6.00
2019-04-10T01:57:52.638Z,6.10
2019-04-10T02:00:25.796Z,6.10
2019-04-10T02:02:56.017Z,6.00
2019-04-10T02:05:26.203Z,6.00
2019-04-10T02:08:03.279Z,6.10
2019-04-10T02:10:32.064Z,6.10
2019-04-10T02:13:03.220Z,6.00
2019-04-10T02:15:32.799Z,5.90
2019-04-10T02:18:05.381Z,5.90
2019-04-10T02:20:36.735Z,5.90
2019-04-10T02:23:07.266Z,5.90
2019-04-10T02:25:37.491Z,5.80
2019-04-10T02:28:08.919Z,5.80
2019-04-10T02:30:41.359Z,5.80
2019-04-10T02:33:11.381Z,5.80
2019-04-10T02:35:41.583Z,5.50
2019-04-10T02:38:32.794Z,5.30
2019-04-10T02:40:45.586Z,5.40
2019-04-10T02:43:16.205Z,5.40
2019-04-10T02:45:46.959Z,5.50
2019-04-10T02:48:17.433Z,5.40
2019-04-10T02:50:49.154Z,5.50
2019-04-10T02:53:19.658Z,5.50
2019-04-10T02:55:51.596Z,5.40
2019-04-10T02:58:22.317Z,5.50
2019-04-10T03:00:54.839Z,5.30
2019-04-10T03:03:25.507Z,5.10
2019-04-10T03:05:58.569Z,5.00
2019-04-10T03:08:44.736Z,5.30
2019-04-10T03:11:04.215Z,5.00
2019-04-10T03:13:35.715Z,4.80
2019-04-10T03:16:07.305Z,4.90
2019-04-10T03:18:37.730Z,4.90
2019-04-10T03:21:08.888Z,4.80
2019-04-10T03:23:39.798Z,4.80
2019-04-10T03:26:14.007Z,4.80
2019-04-10T03:28:45.557Z,4.90
2019-04-10T03:31:15.953Z,5.10
2019-04-10T03:33:51.780Z,5.20
2019-04-10T03:36:21.162Z,5.00
2019-04-10T03:38:59.530Z,5.00
2019-04-10T03:41:24.129Z,5.00
2019-04-10T03:44:00.580Z,5.10
2019-04-10T03:46:30.919Z,4.90
2019-04-10T03:49:01.263Z,4.80
2019-04-10T03:51:32.428Z,4.60
2019-04-10T03:54:04.800Z,4.60
2019-04-10T03:56:35.994Z,4.70
2019-04-10T03:59:06.378Z,4.60
2019-04-10T04:01:38.812Z,4.40
2019-04-10T04:04:09.294Z,4.40
2019-04-10T04:06:39.847Z,4.40
2019-04-10T04:09:12.032Z,4.30
2019-04-10T04:11:42.471Z,4.30
2019-04-10T04:14:12.695Z,4.40
2019-04-10T04:16:43.605Z,4.40
2019-04-10T04:19:13.989Z,4.50
2019-04-10T04:21:44.623Z,4.50
2019-04-10T04:24:15.566Z,4.50
2019-04-10T04:26:46.538Z,4.50
2019-04-10T04:29:16.490Z,4.40
2019-04-10T04:31:46.538Z,4.40
2019-04-10T04:34:16.733Z,4.30
2019-04-10T04:36:48.896Z,4.10
2019-04-10T04:39:24.921Z,4.10
2019-04-10T04:41:50.766Z,4.30
2019-04-10T04:44:20.957Z,4.40
2019-04-10T04:46:51.145Z,4.40
2019-04-10T04:49:21.349Z,4.30
2019-04-10T04:51:52.584Z,4.10
2019-04-10T04:54:23.306Z,4.00
2019-04-10T04:56:53.711Z,3.90
2019-04-10T04:59:23.975Z,4.00
2019-04-10T05:01:54.999Z,4.00
2019-04-10T05:04:25.051Z,4.10
2019-04-10T05:06:56.239Z,4.10
2019-04-10T05:09:35.131Z,4.10
2019-04-10T05:12:00.608Z,4.20
2019-04-10T05:14:31.526Z,4.10
2019-04-10T05:17:01.821Z,4.00
2019-04-10T05:19:32.355Z,3.90
2019-04-10T05:22:02.745Z,4.00
2019-04-10T05:24:33.052Z,4.00
2019-04-10T05:27:03.254Z,4.20
2019-04-10T05:29:34.513Z,4.30
2019-04-10T05:32:05.171Z,4.20
2019-04-10T05:34:36.156Z,4.30
2019-04-10T05:37:07.310Z,4.60
2019-04-10T05:39:43.141Z,5.00
2019-04-10T05:42:10.582Z,5.50
2019-04-10T05:44:40.248Z,6.20
2019-04-10T05:47:10.386Z,6.50
2019-04-10T05:49:41.472Z,6.60
2019-04-10T05:52:12.676Z,6.70
2019-04-10T05:54:43.827Z,7.10
2019-04-10T05:57:14.265Z,7.20
2019-04-10T05:59:44.468Z,7.70
2019-04-10T06:02:15.605Z,8.10
2019-04-10T06:04:46.062Z,7.90
2019-04-10T06:07:17.037Z,8.20
2019-04-10T06:09:55.743Z,8.80
2019-04-10T06:12:20.304Z,9.50
2019-04-10T06:14:50.482Z,10.00
2019-04-10T06:17:21.083Z,9.80
2019-04-10T06:19:51.270Z,9.90
2019-04-10T06:22:22.801Z,9.70
2019-04-10T06:24:54.315Z,9.40
2019-04-10T06:27:24.692Z,9.60
2019-04-10T06:29:55.259Z,9.50
2019-04-10T06:32:25.595Z,9.50
2019-04-10T06:34:55.796Z,9.30
2019-04-10T06:37:26.229Z,9.60
2019-04-10T06:40:07.617Z,9.20
2019-04-10T06:42:52.070Z,9.40
2019-04-10T06:45:20.087Z,9.70
2019-04-10T06:47:50.791Z,10.20
2019-04-10T06:50:21.163Z,10.80
2019-04-10T06:52:51.422Z,10.20
2019-04-10T06:55:21.756Z,11.00
2019-04-10T06:57:56.330Z,12.20
2019-04-10T07:00:25.119Z,12.30
2019-04-10T07:02:56.628Z,11.80
2019-04-10T07:05:37.008Z,12.10
2019-04-10T07:08:09.158Z,11.50
2019-04-10T07:10:43.744Z,11.60
2019-04-10T07:13:04.302Z,11.60
2019-04-10T07:15:33.738Z,11.40
2019-04-10T07:18:04.066Z,11.80
2019-04-10T07:20:34.278Z,12.20
2019-04-10T07:23:04.979Z,11.90
2019-04-10T07:25:35.427Z,12.00
2019-04-10T07:28:08.788Z,11.70
2019-04-10T07:30:38.100Z,11.60
2019-04-10T07:33:09.643Z,11.50
2019-04-10T07:35:40.283Z,11.40
2019-04-10T07:38:11.631Z,12.10
2019-04-10T07:40:42.907Z,12.10
2019-04-10T07:43:13.376Z,12.10
2019-04-10T07:45:44.898Z,12.40
2019-04-10T07:48:16.391Z,12.30
2019-04-10T07:50:47.496Z,12.00
2019-04-10T07:53:18.972Z,11.20
2019-04-10T07:56:01.444Z,11.10
2019-04-10T07:58:24.085Z,10.50
2019-04-10T08:00:54.262Z,9.90
2019-04-10T08:03:25.166Z,9.90
2019-04-10T08:05:56.792Z,9.80
2019-04-10T08:08:27.832Z,9.90
2019-04-10T08:10:59.379Z,9.70
2019-04-10T08:14:09.058Z,9.70
2019-04-10T08:16:39.456Z,9.70
2019-04-10T08:19:10.405Z,9.80
2019-04-10T08:21:40.985Z,10.20
2019-04-10T08:24:11.437Z,10.30
2019-04-10T08:26:42.968Z,10.30
2019-04-10T08:29:33.026Z,10.20
2019-04-10T08:32:03.440Z,10.50
2019-04-10T08:34:35.775Z,10.90
2019-04-10T08:37:08.103Z,11.40
2019-04-10T08:39:42.930Z,11.80
2019-04-10T08:42:10.683Z,11.70
2019-04-10T08:44:42.379Z,12.20
2019-04-10T08:47:13.090Z,12.40
2019-04-10T08:49:43.314Z,12.40
2019-04-10T08:52:14.794Z,12.70
2019-04-10T08:54:45.177Z,12.70
2019-04-10T08:57:15.372Z,12.40
2019-04-10T08:59:46.849Z,12.70
2019-04-10T09:02:18.039Z,12.90
2019-04-10T09:04:49.001Z,13.40
2019-04-10T09:07:20.471Z,13.80
2019-04-10T09:09:50.742Z,13.80
2019-04-10T09:12:21.895Z,14.00
2019-04-10T09:14:53.787Z,13.60
2019-04-10T09:17:24.982Z,13.50
2019-04-10T09:19:54.783Z,13.40
2019-04-10T09:22:25.779Z,13.10
2019-04-10T09:24:57.026Z,13.40
2019-04-10T09:27:27.287Z,13.00
2019-04-10T09:29:57.723Z,13.80
2019-04-10T09:32:28.661Z,14.50
2019-04-10T09:34:58.985Z,14.40
2019-04-10T09:37:31.014Z,14.50
2019-04-10T09:40:01.098Z,14.00
2019-04-10T09:42:31.449Z,14.50
2019-04-10T09:45:02.697Z,15.10
2019-04-10T09:47:45.871Z,15.50
2019-04-10T09:50:17.151Z,15.20
2019-04-10T09:52:48.277Z,14.70
2019-04-10T09:55:18.839Z,14.80
2019-04-10T09:57:49.748Z,14.70
2019-04-10T10:00:21.335Z,15.50
2019-04-10T10:02:52.964Z,15.50
2019-04-10T10:05:23.430Z,15.00
2019-04-10T10:07:56.088Z,15.10
2019-04-10T10:10:25.842Z,15.10
2019-04-10T10:12:56.925Z,15.20
2019-04-10T10:15:27.450Z,14.00
2019-04-10T10:17:57.683Z,14.50
2019-04-10T10:20:29.086Z,15.20
2019-04-10T10:22:59.922Z,16.20
2019-04-10T10:25:31.241Z,16.80
2019-04-10T10:28:02.859Z,16.50
2019-04-10T10:30:51.552Z,15.40
2019-04-10T10:33:21.991Z,14.30
2019-04-10T10:35:52.162Z,14.70
2019-04-10T10:38:23.156Z,15.30
2019-04-10T10:40:53.589Z,15.40
2019-04-10T10:44:13.075Z,15.30
2019-04-10T10:46:43.976Z,15.80
2019-04-10T10:49:14.566Z,16.00
2019-04-10T10:51:44.798Z,16.70
2019-04-10T10:54:15.055Z,16.90
2019-04-10T10:56:45.326Z,17.10
2019-04-10T10:59:15.611Z,16.80
2019-04-10T11:01:46.319Z,17.00
2019-04-10T11:04:17.095Z,16.60
2019-04-10T11:06:54.024Z,16.10
2019-04-10T11:09:19.693Z,15.90
2019-04-10T11:11:49.994Z,15.20
2019-04-10T11:14:21.367Z,15.70
2019-04-10T11:16:51.890Z,15.50
2019-04-10T11:19:23.462Z,15.30
2019-04-10T11:21:54.742Z,14.80
2019-04-10T11:24:25.500Z,15.60
2019-04-10T11:26:55.917Z,16.60
2019-04-10T11:30:05.200Z,17.40
2019-04-10T11:32:36.672Z,17.20
2019-04-10T11:35:07.746Z,17.00
2019-04-10T11:37:44.534Z,16.50
2019-04-10T11:40:12.383Z,17.10
2019-04-10T11:42:44.798Z,17.00
2019-04-10T11:45:18.159Z,16.80
2019-04-10T11:47:50.755Z,17.10
2019-04-10T11:50:21.801Z,16.50
2019-04-10T11:53:02.736Z,16.60
2019-04-10T11:55:46.922Z,16.60
2019-04-10T11:58:14.571Z,16.50
2019-04-10T12:03:18.513Z,15.70
2019-04-10T12:05:51.793Z,14.90
2019-04-10T12:13:28.541Z,16.10
2019-04-10T12:15:59.588Z,16.50
2019-04-10T12:18:30.924Z,17.10
2019-04-10T12:21:07.367Z,17.50
2019-04-10T12:23:40.956Z,17.00
2019-04-10T12:26:15.757Z,17.50
2019-04-10T12:28:50.013Z,17.30
2019-04-10T12:31:22.593Z,16.90
2019-04-10T12:33:56.892Z,16.10
2019-04-10T12:36:28.869Z,16.10
2019-04-10T12:39:00.960Z,16.50
2019-04-10T12:41:36.914Z,16.70
2019-04-10T12:44:09.613Z,16.50
2019-04-10T12:46:42.225Z,16.60
2019-04-10T12:49:15.148Z,16.20
2019-04-10T12:51:52.248Z,15.90
2019-04-10T12:54:23.769Z,16.30
2019-04-10T12:56:58.820Z,16.20
2019-04-10T12:59:31.947Z,16.20
2019-04-10T13:02:02.972Z,15.80
2019-04-10T13:04:34.819Z,16.00
2019-04-10T13:07:05.396Z,15.50
2019-04-10T13:09:36.261Z,15.70
2019-04-10T13:12:11.081Z,16.10
2019-04-10T13:14:47.061Z,16.20
2019-04-10T13:17:28.818Z,16.50
2019-04-10T13:20:09.371Z,16.40
2019-04-10T13:22:46.406Z,15.90
2019-04-10T13:25:27.628Z,16.40
2019-04-10T13:28:08.263Z,17.00
2019-04-10T13:30:52.929Z,17.00
2019-04-10T13:33:22.700Z,16.40
2019-04-10T13:36:01.531Z,15.90
2019-04-10T13:38:38.348Z,16.00
2019-04-10T13:41:14.570Z,15.90
2019-04-10T13:43:54.231Z,16.10
2019-04-10T13:46:33.795Z,16.20
2019-04-10T13:49:14.856Z,16.50
2019-04-10T13:51:52.003Z,16.50
2019-04-10T13:54:28.996Z,16.30
2019-04-10T13:57:06.375Z,16.20
2019-04-10T14:00:18.023Z,16.00
2019-04-10T14:02:54.126Z,16.10
2019-04-10T14:05:36.922Z,16.60
2019-04-10T14:08:10.845Z,16.20
2019-04-10T14:10:48.882Z,15.60
2019-04-10T14:13:27.929Z,15.30
2019-04-10T14:16:04.405Z,15.50
2019-04-10T14:18:37.201Z,15.50
2019-04-10T14:21:14.250Z,15.20
2019-04-10T14:23:51.343Z,15.40
2019-04-10T14:26:41.972Z,15.20
2019-04-10T14:29:07.248Z,14.90
2019-04-10T14:32:03.368Z,15.00
2019-04-10T14:34:35.201Z,14.90
2019-04-10T14:37:11.498Z,15.00
2019-04-10T14:42:16.662Z,14.20
2019-04-10T14:44:53.060Z,14.00
2019-04-10T14:47:27.593Z,14.30
2019-04-10T14:50:05.275Z,14.40
2019-04-10T14:52:37.999Z,14.10
2019-04-10T14:55:10.327Z,14.10
2019-04-10T14:57:41.827Z,14.10
2019-04-10T15:00:31.013Z,14.30
2019-04-10T15:03:02.506Z,14.60
2019-04-10T15:05:44.676Z,14.00
2019-04-10T15:08:07.165Z,13.90
2019-04-10T15:10:38.355Z,13.80
2019-04-10T15:13:13.622Z,14.20
2019-04-10T15:15:43.196Z,14.40
2019-04-10T15:18:15.006Z,14.00
2019-04-10T15:20:47.270Z,13.90
2019-04-10T15:23:18.982Z,13.90
2019-04-10T15:25:51.208Z,13.60
2019-04-10T15:28:23.294Z,13.20
2019-04-10T15:31:01.406Z,13.20
2019-04-10T15:33:32.324Z,13.00
2019-04-10T15:36:03.970Z,13.10
2019-04-10T15:38:36.332Z,12.70
2019-04-10T15:41:07.019Z,12.60
2019-04-10T15:43:37.542Z,12.60
2019-04-10T15:46:08.784Z,12.60
2019-04-10T15:48:42.411Z,12.50
2019-04-10T15:51:16.329Z,12.20
2019-04-10T15:53:48.058Z,12.40
2019-04-10T15:56:20.409Z,12.50
2019-04-10T15:58:55.608Z,12.40
2019-04-10T16:01:33.064Z,12.30
2019-04-10T16:04:08.118Z,12.40
2019-04-10T16:06:41.752Z,12.30
2019-04-10T16:09:16.910Z,12.20
2019-04-10T16:11:54.782Z,12.20
2019-04-10T16:14:32.140Z,12.10
2019-04-10T16:17:13.328Z,12.00
2019-04-10T16:20:11.351Z,12.00
2019-04-10T16:22:54.979Z,12.00
2019-04-10T16:25:29.999Z,12.00
2019-04-10T16:28:06.146Z,11.90
2019-04-10T16:30:46.587Z,12.10
2019-04-10T16:33:23.764Z,12.20
2019-04-10T16:36:05.371Z,12.30
2019-04-10T16:38:51.124Z,12.30
2019-04-10T16:41:31.058Z,12.40
2019-04-10T16:44:08.647Z,12.10
2019-04-10T16:46:44.525Z,12.10
2019-04-10T16:49:22.770Z,12.10
2019-04-10T16:52:03.154Z,11.90
2019-04-10T16:54:46.119Z,12.00
2019-04-10T16:57:22.680Z,11.80
2019-04-10T16:59:57.339Z,11.80
2019-04-10T17:02:34.415Z,11.90
2019-04-10T17:05:10.216Z,11.80
2019-04-10T17:07:50.375Z,11.60
2019-04-10T17:10:29.166Z,11.50
2019-04-10T17:13:04.623Z,11.60
2019-04-10T17:15:37.792Z,11.90
2019-04-10T17:18:12.767Z,12.10
2019-04-10T17:20:44.609Z,12.40
2019-04-10T17:23:16.354Z,12.40
2019-04-10T17:25:48.731Z,12.10
2019-04-10T17:28:23.173Z,11.80
2019-04-10T17:30:53.919Z,11.70
2019-04-10T17:33:28.194Z,11.50
2019-04-10T17:36:00.163Z,11.40
2019-04-10T17:38:31.593Z,11.50
2019-04-10T17:41:04.175Z,11.40
2019-04-10T17:43:35.068Z,11.30
2019-04-10T17:46:07.061Z,11.30
2019-04-10T17:48:38.743Z,11.20
2019-04-10T17:51:10.310Z,10.90
2019-04-10T17:53:45.452Z,10.70
2019-04-10T17:56:15.898Z,10.60
2019-04-10T17:58:47.226Z,10.50
2019-04-10T18:01:24.986Z,10.50
2019-04-10T18:04:01.765Z,10.60
2019-04-10T18:06:33.214Z,10.40
2019-04-10T18:09:09.733Z,10.40
2019-04-10T18:11:41.654Z,10.10
2019-04-10T18:14:13.372Z,9.90
2019-04-10T18:16:44.315Z,9.90
2019-04-10T18:19:17.103Z,9.90
2019-04-10T18:21:48.047Z,9.60
2019-04-10T18:24:22.152Z,9.50
2019-04-10T18:26:56.600Z,9.50
2019-04-10T18:29:31.517Z,9.60
2019-04-10T18:32:08.237Z,9.50
2019-04-10T18:34:42.425Z,9.40
2019-04-10T18:37:15.428Z,9.40
2019-04-10T18:39:46.424Z,9.20
2019-04-10T18:42:19.336Z,9.20
2019-04-10T18:44:50.183Z,8.90
2019-04-10T18:47:20.772Z,9.10
2019-04-10T18:49:53.998Z,9.00
2019-04-10T18:52:26.066Z,8.90
2019-04-10T18:54:58.636Z,9.00
2019-04-10T18:57:33.813Z,8.90
2019-04-10T19:00:20.262Z,8.80
2019-04-10T19:03:09.649Z,8.90
2019-04-10T19:05:42.026Z,8.90
2019-04-10T19:08:15.672Z,8.80
2019-04-10T19:10:47.340Z,8.80
2019-04-10T19:13:18.881Z,8.70
2019-04-10T19:15:55.415Z,8.50
2019-04-10T19:18:33.473Z,8.50
2019-04-10T19:21:13.467Z,8.60
2019-04-10T19:23:51.363Z,8.50
2019-04-10T19:26:29.490Z,8.50
2019-04-10T19:29:05.360Z,8.30
2019-04-10T19:31:51.922Z,8.20
2019-04-10T19:34:29.530Z,8.10
2019-04-10T19:37:10.283Z,8.00
2019-04-10T19:39:50.754Z,7.80
2019-04-10T19:42:30.571Z,7.70
2019-04-10T19:45:09.932Z,7.90
2019-04-10T19:47:47.339Z,7.80
2019-04-10T19:50:30.010Z,7.70
2019-04-10T19:53:04.742Z,7.60
2019-04-10T19:55:40.044Z,7.60
2019-04-10T19:58:17.672Z,7.50
2019-04-10T20:00:53.402Z,7.60
2019-04-10T20:03:31.999Z,7.40
2019-04-10T20:06:10.743Z,7.40
2019-04-10T20:08:46.013Z,7.40
2019-04-10T20:11:33.822Z,7.40
2019-04-10T20:14:00.855Z,7.40
2019-04-10T20:16:33.281Z,7.30
2019-04-10T20:19:04.121Z,7.20
2019-04-10T20:21:34.471Z,7.20
2019-04-10T20:24:04.882Z,7.10
2019-04-10T20:26:36.913Z,7.00
2019-04-10T20:29:08.296Z,7.00
2019-04-10T20:31:39.661Z,6.80
2019-04-10T20:34:11.540Z,6.90
2019-04-10T20:36:43.559Z,6.90
2019-04-10T20:39:14.995Z,6.80
2019-04-10T20:41:51.912Z,7.00
2019-04-10T20:44:18.772Z,6.80
2019-04-10T20:46:50.758Z,6.80
2019-04-10T20:49:23.801Z,6.60
2019-04-10T20:51:55.772Z,6.50
2019-04-10T20:54:30.825Z,6.50
2019-04-10T20:57:01.727Z,6.50
2019-04-10T20:59:33.457Z,6.30
2019-04-10T21:02:06.260Z,6.50
2019-04-10T21:04:52.121Z,6.50
2019-04-10T21:07:14.428Z,6.40
2019-04-10T21:09:45.592Z,6.40
2019-04-10T21:12:20.250Z,6.30
2019-04-10T21:14:49.170Z,6.30
2019-04-10T21:17:22.649Z,6.30
2019-04-10T21:19:55.878Z,6.30
2019-04-10T21:22:28.714Z,6.20
2019-04-10T21:25:00.596Z,6.10
2019-04-10T21:27:32.790Z,6.00
2019-04-10T21:30:07.664Z,6.00
2019-04-10T21:32:56.948Z,6.00
2019-04-10T21:35:38.842Z,6.00
2019-04-10T21:38:11.049Z,5.60
2019-04-10T21:40:43.320Z,5.60
2019-04-10T21:43:14.362Z,5.70
2019-04-10T21:45:45.940Z,5.70
2019-04-10T21:48:16.807Z,5.60
2019-04-10T21:50:47.043Z,5.70
2019-04-10T21:53:17.247Z,5.60
2019-04-10T21:55:47.933Z,5.80
2019-04-10T21:58:18.361Z,5.80
2019-04-10T22:00:52.931Z,5.60
2019-04-10T22:03:25.648Z,5.50
2019-04-10T22:06:13.956Z,5.30
2019-04-10T22:09:01.877Z,5.40
2019-04-10T22:11:34.191Z,5.60
2019-04-10T22:14:04.546Z,5.40
2019-04-10T22:16:35.751Z,5.60
2019-04-10T22:19:14.453Z,5.60
2019-04-10T22:21:44.703Z,5.60
2019-04-10T22:24:15.767Z,5.60
2019-04-10T22:26:46.806Z,5.60
2019-04-10T22:29:17.642Z,5.60
2019-04-10T22:31:49.167Z,5.50
2019-04-10T22:34:19.497Z,5.30
2019-04-10T22:36:49.728Z,5.40
2019-04-10T22:39:19.978Z,5.40
2019-04-10T22:41:50.435Z,5.50
2019-04-10T22:44:32.468Z,5.50
2019-04-10T22:46:54.514Z,5.60
2019-04-10T22:49:24.718Z,5.50
2019-04-10T22:51:54.896Z,5.50
2019-04-10T22:54:26.190Z,5.50
2019-04-10T22:56:56.608Z,5.50
2019-04-10T22:59:28.391Z,5.70
2019-04-10T23:02:06.495Z,5.70
2019-04-10T23:04:48.114Z,5.90
2019-04-10T23:07:18.540Z,5.70
2019-04-10T23:09:48.914Z,5.70
2019-04-10T23:12:20.316Z,5.60
2019-04-10T23:14:51.167Z,5.50
2019-04-10T23:17:21.639Z,5.60
2019-04-10T23:20:28.566Z,5.60
2019-04-10T23:22:58.930Z,5.50
2019-04-10T23:25:29.406Z,5.30
2019-04-10T23:27:59.587Z,5.20
2019-04-10T23:30:29.798Z,5.20
2019-04-10T23:33:00.001Z,5.30
2019-04-10T23:35:30.198Z,5.40
2019-04-10T23:38:01.463Z,5.40
2019-04-10T23:40:32.768Z,5.20
2019-04-10T23:43:11.306Z,5.00
2019-04-10T23:45:35.002Z,5.00
2019-04-10T23:48:05.183Z,5.10
2019-04-10T23:50:36.436Z,4.90
2019-04-10T23:53:06.822Z,4.90
2019-04-10T23:55:37.846Z,5.10
2019-04-10T23:58:09.581Z,5.10
